createdAt,value
2023-04-09T00:00:18.737Z,27.32
2023-04-09T00:01:18.750Z,27.34
2023-04-09T00:02:18.846Z,27.32
2023-04-09T00:03:18.854Z,27.34
2023-04-09T00:04:18.836Z,27.32
2023-04-09T00:05:18.770Z,27.32
2023-04-09T00:06:18.767Z,27.33
2023-04-09T00:07:18.785Z,27.34
2023-04-09T00:08:18.853Z,27.33
2023-04-09T00:09:18.830Z,27.33
2023-04-09T00:10:18.838Z,27.34
2023-04-09T00:11:18.836Z,27.34
2023-04-09T00:12:18.813Z,27.35
2023-04-09T00:13:28.331Z,27.35
2023-04-09T00:14:19.846Z,27.35
2023-04-09T00:15:30.007Z,27.34
2023-04-09T00:16:19.905Z,27.34
2023-04-09T00:17:18.841Z,27.34
2023-04-09T00:18:18.856Z,27.36
2023-04-09T00:19:18.799Z,27.32
2023-04-09T00:20:18.813Z,27.33
2023-04-09T00:21:18.785Z,27.34
2023-04-09T00:22:18.797Z,27.33
2023-04-09T00:23:18.786Z,27.35
2023-04-09T00:24:18.798Z,27.34
2023-04-09T00:25:18.796Z,27.34
2023-04-09T00:26:18.748Z,27.34
2023-04-09T00:27:18.723Z,27.36
2023-04-09T00:28:18.736Z,27.33
2023-04-09T00:29:18.727Z,27.34
2023-04-09T00:30:18.734Z,27.34
2023-04-09T00:31:20.602Z,27.36
2023-04-09T00:32:18.750Z,27.34
2023-04-09T00:33:18.687Z,27.36
2023-04-09T00:34:18.763Z,27.35
2023-04-09T00:35:18.696Z,27.35
2023-04-09T00:36:18.675Z,27.36
2023-04-09T00:37:18.678Z,27.36
2023-04-09T00:38:18.683Z,27.35
2023-04-09T00:39:18.708Z,27.35
2023-04-09T00:40:18.714Z,27.34
2023-04-09T00:41:18.636Z,27.37
2023-04-09T00:42:18.643Z,27.35
2023-04-09T00:43:18.670Z,27.36
2023-04-09T00:44:18.632Z,27.37
2023-04-09T00:45:18.645Z,27.37
2023-04-09T00:46:18.717Z,27.37
2023-04-09T00:47:18.593Z,27.37
2023-04-09T00:48:18.584Z,27.36
2023-04-09T00:49:18.597Z,27.37
2023-04-09T00:50:18.598Z,27.37
2023-04-09T00:51:18.569Z,27.38
2023-04-09T00:52:18.527Z,27.38
2023-04-09T00:53:18.591Z,27.36
2023-04-09T00:54:18.546Z,27.38
2023-04-09T00:55:18.527Z,27.37
2023-04-09T00:56:18.538Z,27.37
2023-04-09T00:57:18.610Z,27.38
2023-04-09T00:58:18.544Z,27.37
2023-04-09T00:59:18.559Z,27.37
2023-04-09T01:00:18.580Z,27.39
2023-04-09T01:01:18.613Z,27.40
2023-04-09T01:02:18.641Z,27.36
2023-04-09T01:03:18.656Z,27.34
2023-04-09T01:04:18.566Z,27.37
2023-04-09T01:05:18.555Z,27.38
2023-04-09T01:06:18.561Z,27.37
2023-04-09T01:07:18.574Z,27.37
2023-04-09T01:08:18.585Z,27.36
2023-04-09T01:09:18.586Z,27.36
2023-04-09T01:10:18.594Z,27.36
2023-04-09T01:11:18.561Z,27.35
2023-04-09T01:12:18.538Z,27.39
2023-04-09T01:13:18.625Z,27.40
2023-04-09T01:14:18.614Z,27.39
2023-04-09T01:15:18.554Z,27.39
2023-04-09T01:16:18.584Z,27.38
2023-04-09T01:17:18.566Z,27.38
2023-04-09T01:18:18.608Z,27.40
2023-04-09T01:19:18.578Z,27.39
2023-04-09T01:20:18.616Z,27.39
2023-04-09T01:21:18.599Z,27.37
2023-04-09T01:22:18.597Z,27.38
2023-04-09T01:23:18.648Z,27.41
2023-04-09T01:24:18.650Z,27.39
2023-04-09T01:25:18.590Z,27.38
2023-04-09T01:26:18.600Z,27.40
2023-04-09T01:27:18.596Z,27.40
2023-04-09T01:28:18.664Z,27.38
2023-04-09T01:29:18.637Z,27.37
2023-04-09T01:30:18.662Z,27.41
2023-04-09T01:31:18.669Z,27.40
2023-04-09T01:32:18.730Z,27.42
2023-04-09T01:33:18.682Z,27.39
2023-04-09T01:34:18.654Z,27.40
2023-04-09T01:35:18.659Z,27.39
2023-04-09T01:36:18.733Z,27.42
2023-04-09T01:37:18.676Z,27.38
2023-04-09T01:38:18.689Z,27.41
2023-04-09T01:39:18.748Z,27.40
2023-04-09T01:40:18.746Z,27.42
2023-04-09T01:41:18.702Z,27.40
2023-04-09T01:42:18.699Z,27.41
2023-04-09T01:43:18.718Z,27.42
2023-04-09T01:44:18.722Z,27.39
2023-04-09T01:45:18.737Z,27.42
2023-04-09T01:46:18.770Z,27.40
2023-04-09T01:47:18.694Z,27.41
2023-04-09T01:48:18.698Z,27.41
2023-04-09T01:49:18.955Z,27.41
2023-04-09T01:50:18.774Z,27.41
2023-04-09T01:51:18.724Z,27.40
2023-04-09T01:52:18.778Z,27.40
2023-04-09T01:53:18.819Z,27.41
2023-04-09T01:54:18.781Z,27.44
2023-04-09T01:55:18.791Z,27.42
2023-04-09T01:56:18.806Z,27.41
2023-04-09T01:57:18.806Z,27.42
2023-04-09T01:58:18.823Z,27.41
2023-04-09T01:59:18.827Z,27.41
2023-04-09T02:00:18.832Z,27.42
2023-04-09T02:01:18.858Z,27.42
2023-04-09T02:02:19.028Z,27.42
2023-04-09T02:03:18.972Z,27.40
2023-04-09T02:04:18.874Z,27.41
2023-04-09T02:05:18.870Z,27.42
2023-04-09T02:06:18.871Z,27.42
2023-04-09T02:07:18.946Z,27.40
2023-04-09T02:08:18.916Z,27.40
2023-04-09T02:09:18.944Z,27.42
2023-04-09T02:10:18.894Z,27.43
2023-04-09T02:11:18.959Z,27.41
2023-04-09T02:12:19.014Z,27.42
2023-04-09T02:13:18.977Z,27.42
2023-04-09T02:14:18.993Z,27.43
2023-04-09T02:15:18.972Z,27.43
2023-04-09T02:16:19.055Z,27.42
2023-04-09T02:17:19.004Z,27.44
2023-04-09T02:18:19.015Z,27.43
2023-04-09T02:19:19.029Z,27.44
2023-04-09T02:20:18.995Z,27.44
2023-04-09T02:21:19.005Z,27.44
2023-04-09T02:22:19.049Z,27.43
2023-04-09T02:23:19.511Z,27.44
2023-04-09T02:24:19.017Z,27.44
2023-04-09T02:25:19.053Z,27.44
2023-04-09T02:26:19.122Z,27.44
2023-04-09T02:27:19.061Z,27.43
2023-04-09T02:28:19.132Z,27.44
2023-04-09T02:29:19.052Z,27.44
2023-04-09T02:30:19.093Z,27.43
2023-04-09T02:31:19.118Z,27.45
2023-04-09T02:32:19.078Z,27.46
2023-04-09T02:33:19.160Z,27.44
2023-04-09T02:34:19.086Z,27.42
2023-04-09T02:35:19.097Z,27.45
2023-04-09T02:36:19.107Z,27.43
2023-04-09T02:37:19.111Z,27.43
2023-04-09T02:38:19.120Z,27.45
2023-04-09T02:39:19.118Z,27.46
2023-04-09T02:40:19.172Z,27.43
2023-04-09T02:41:19.169Z,27.44
2023-04-09T02:42:19.171Z,27.46
2023-04-09T02:43:19.177Z,27.46
2023-04-09T02:44:19.189Z,27.45
2023-04-09T02:45:19.172Z,27.44
2023-04-09T02:46:19.241Z,27.47
2023-04-09T02:47:19.244Z,27.46
2023-04-09T02:48:19.211Z,27.46
2023-04-09T02:49:19.224Z,27.46
2023-04-09T02:50:19.235Z,27.45
2023-04-09T02:51:19.231Z,27.47
2023-04-09T02:52:19.296Z,27.48
2023-04-09T02:53:19.247Z,27.47
2023-04-09T02:54:19.255Z,27.47
2023-04-09T02:55:19.275Z,27.46
2023-04-09T02:56:19.311Z,27.47
2023-04-09T02:57:19.337Z,27.45
2023-04-09T02:58:19.334Z,27.48
2023-04-09T02:59:19.344Z,27.46
2023-04-09T03:00:19.356Z,27.43
2023-04-09T03:01:19.374Z,27.47
2023-04-09T03:02:19.424Z,27.44
2023-04-09T03:03:19.559Z,27.46
2023-04-09T03:04:19.344Z,27.46
2023-04-09T03:05:19.376Z,27.47
2023-04-09T03:06:19.354Z,27.48
2023-04-09T03:07:19.399Z,27.47
2023-04-09T03:08:19.402Z,27.46
2023-04-09T03:09:19.360Z,27.47
2023-04-09T03:10:19.419Z,27.48
2023-04-09T03:11:19.420Z,27.47
2023-04-09T03:12:19.454Z,27.48
2023-04-09T03:13:19.443Z,27.47
2023-04-09T03:14:19.447Z,27.46
2023-04-09T03:15:19.447Z,27.45
2023-04-09T03:16:19.540Z,27.44
2023-04-09T03:17:19.464Z,27.45
2023-04-09T03:18:19.466Z,27.46
2023-04-09T03:19:19.473Z,27.47
2023-04-09T03:20:19.539Z,27.48
2023-04-09T03:21:19.548Z,27.47
2023-04-09T03:22:19.548Z,27.47
2023-04-09T03:23:19.558Z,27.49
2023-04-09T03:24:19.569Z,27.48
2023-04-09T03:25:19.785Z,27.47
2023-04-09T03:26:19.642Z,27.48
2023-04-09T03:27:19.631Z,27.49
2023-04-09T03:28:19.642Z,27.47
2023-04-09T03:29:19.648Z,27.47
2023-04-09T03:30:19.658Z,27.46
2023-04-09T03:31:19.825Z,27.47
2023-04-09T03:32:19.662Z,27.48
2023-04-09T03:33:19.674Z,27.49
2023-04-09T03:34:19.695Z,27.48
2023-04-09T03:35:19.746Z,27.48
2023-04-09T03:36:19.749Z,27.47
2023-04-09T03:37:19.745Z,27.49
2023-04-09T03:38:19.758Z,27.47
2023-04-09T03:39:19.824Z,27.48
2023-04-09T03:40:19.841Z,27.49
2023-04-09T03:41:19.833Z,27.48
2023-04-09T03:42:19.850Z,27.49
2023-04-09T03:43:19.857Z,27.49
2023-04-09T03:44:19.844Z,27.47
2023-04-09T03:45:19.861Z,27.47
2023-04-09T03:46:19.893Z,27.48
2023-04-09T03:47:19.940Z,27.49
2023-04-09T03:48:19.936Z,27.49
2023-04-09T03:49:19.943Z,27.48
2023-04-09T03:50:19.940Z,27.49
2023-04-09T03:51:19.947Z,27.48
2023-04-09T03:52:19.952Z,27.48
2023-04-09T03:53:19.959Z,27.48
2023-04-09T03:54:20.016Z,27.48
2023-04-09T03:55:20.034Z,27.48
2023-04-09T03:56:19.997Z,27.48
2023-04-09T03:57:20.058Z,27.51
2023-04-09T03:58:20.052Z,27.49
2023-04-09T03:59:20.057Z,27.51
2023-04-09T04:00:20.061Z,27.49
2023-04-09T04:01:20.072Z,27.49
2023-04-09T04:02:20.221Z,27.51
2023-04-09T04:03:20.197Z,27.50
2023-04-09T04:04:23.415Z,27.50
2023-04-09T04:05:20.105Z,27.49
2023-04-09T04:06:20.116Z,27.50
2023-04-09T04:07:20.210Z,27.48
2023-04-09T04:08:20.211Z,27.49
2023-04-09T04:09:20.065Z,27.52
2023-04-09T04:10:20.077Z,27.52
2023-04-09T04:11:20.073Z,27.51
2023-04-09T04:12:20.053Z,27.52
2023-04-09T04:13:20.098Z,27.50
2023-04-09T04:14:20.048Z,27.51
2023-04-09T04:15:20.079Z,27.48
2023-04-09T04:16:20.042Z,27.51
2023-04-09T04:17:20.042Z,27.50
2023-04-09T04:18:20.020Z,27.51
2023-04-09T04:19:19.988Z,27.52
2023-04-09T04:20:19.993Z,27.51
2023-04-09T04:21:20.004Z,27.51
2023-04-09T04:22:20.011Z,27.53
2023-04-09T04:23:20.008Z,27.52
2023-04-09T04:24:19.955Z,27.54
2023-04-09T04:25:19.977Z,27.53
2023-04-09T04:26:19.974Z,27.54
2023-04-09T04:27:19.940Z,27.53
2023-04-09T04:28:19.941Z,27.53
2023-04-09T04:29:19.957Z,27.53
2023-04-09T04:30:19.901Z,27.52
2023-04-09T04:31:19.939Z,27.50
2023-04-09T04:32:19.920Z,27.51
2023-04-09T04:33:19.930Z,27.54
2023-04-09T04:34:19.884Z,27.52
2023-04-09T04:35:19.932Z,27.51
2023-04-09T04:36:19.900Z,27.52
2023-04-09T04:37:19.912Z,27.53
2023-04-09T04:38:19.853Z,27.55
2023-04-09T04:39:19.859Z,27.52
2023-04-09T04:40:19.915Z,27.55
2023-04-09T04:41:19.830Z,27.55
2023-04-09T04:42:19.842Z,27.53
2023-04-09T04:43:19.857Z,27.54
2023-04-09T04:44:19.848Z,27.54
2023-04-09T04:45:19.825Z,27.53
2023-04-09T04:46:19.843Z,27.54
2023-04-09T04:47:19.806Z,27.53
2023-04-09T04:48:19.815Z,27.53
2023-04-09T04:49:19.789Z,27.53
2023-04-09T04:50:19.773Z,27.53
2023-04-09T04:51:19.792Z,27.54
2023-04-09T04:52:19.737Z,27.52
2023-04-09T04:53:19.812Z,27.52
2023-04-09T04:54:19.753Z,27.54
2023-04-09T04:55:19.774Z,27.53
2023-04-09T04:56:19.719Z,27.54
2023-04-09T04:57:19.781Z,27.54
2023-04-09T04:58:20.562Z,27.54
2023-04-09T04:59:19.755Z,27.54
2023-04-09T05:00:19.690Z,27.53
2023-04-09T05:01:19.765Z,27.54
2023-04-09T05:02:19.934Z,27.54
2023-04-09T05:03:19.754Z,27.53
2023-04-09T05:04:19.682Z,27.54
2023-04-09T05:05:19.680Z,27.54
2023-04-09T05:06:19.698Z,27.53
2023-04-09T05:07:19.706Z,27.52
2023-04-09T05:08:19.694Z,27.53
2023-04-09T05:09:22.220Z,27.54
2023-04-09T05:10:19.714Z,27.54
2023-04-09T05:11:19.733Z,27.54
2023-04-09T05:12:19.800Z,27.54
2023-04-09T05:13:19.680Z,27.56
2023-04-09T05:14:19.692Z,27.54
2023-04-09T05:15:19.645Z,27.54
2023-04-09T05:16:19.705Z,27.55
2023-04-09T05:17:19.739Z,27.54
2023-04-09T05:18:19.696Z,27.56
2023-04-09T05:19:19.680Z,27.55
2023-04-09T05:20:19.624Z,27.54
2023-04-09T05:21:19.636Z,27.53
2023-04-09T05:22:19.602Z,27.55
2023-04-09T05:23:19.603Z,27.54
2023-04-09T05:24:19.611Z,27.57
2023-04-09T05:25:19.633Z,27.55
2023-04-09T05:26:19.630Z,27.56
2023-04-09T05:27:19.567Z,27.54
2023-04-09T05:28:19.574Z,27.53
2023-04-09T05:29:19.594Z,27.54
2023-04-09T05:30:19.548Z,27.55
2023-04-09T05:31:19.596Z,27.53
2023-04-09T05:32:19.598Z,27.56
2023-04-09T05:33:19.513Z,27.55
2023-04-09T05:34:19.528Z,27.54
2023-04-09T05:35:19.594Z,27.54
2023-04-09T05:36:19.538Z,27.53
2023-04-09T05:37:19.542Z,27.53
2023-04-09T05:38:19.510Z,27.53
2023-04-09T05:39:19.515Z,27.52
2023-04-09T05:40:19.522Z,27.52
2023-04-09T05:41:19.532Z,27.51
2023-04-09T05:42:19.479Z,27.53
2023-04-09T05:43:19.478Z,27.53
2023-04-09T05:44:19.545Z,27.53
2023-04-09T05:45:19.453Z,27.54
2023-04-09T05:46:19.501Z,27.52
2023-04-09T05:47:19.506Z,27.52
2023-04-09T05:48:19.467Z,27.51
2023-04-09T05:49:19.405Z,27.49
2023-04-09T05:50:19.425Z,27.50
2023-04-09T05:51:19.434Z,27.52
2023-04-09T05:52:19.398Z,27.52
2023-04-09T05:53:19.455Z,27.51
2023-04-09T05:54:19.402Z,27.51
2023-04-09T05:55:19.405Z,27.51
2023-04-09T05:56:19.367Z,27.52
2023-04-09T05:57:19.356Z,27.51
2023-04-09T05:58:19.332Z,27.50
2023-04-09T05:59:19.350Z,27.50
2023-04-09T06:00:19.344Z,27.49
2023-04-09T06:01:19.360Z,27.50
2023-04-09T06:02:19.430Z,27.50
2023-04-09T06:03:19.541Z,27.50
2023-04-09T06:04:19.428Z,27.50
2023-04-09T06:05:19.328Z,27.48
2023-04-09T06:06:19.333Z,27.50
2023-04-09T06:07:19.350Z,27.49
2023-04-09T06:08:19.300Z,27.49
2023-04-09T06:09:19.297Z,27.47
2023-04-09T06:10:19.329Z,27.49
2023-04-09T06:11:19.271Z,27.51
2023-04-09T06:12:19.270Z,27.49
2023-04-09T06:13:19.277Z,27.50
2023-04-09T06:14:19.248Z,27.50
2023-04-09T06:15:19.243Z,27.48
2023-04-09T06:16:19.421Z,27.48
2023-04-09T06:17:19.258Z,27.47
2023-04-09T06:18:19.215Z,27.48
2023-04-09T06:19:19.264Z,27.47
2023-04-09T06:20:19.202Z,27.47
2023-04-09T06:21:19.226Z,27.45
2023-04-09T06:22:19.185Z,27.47
2023-04-09T06:23:19.194Z,27.47
2023-04-09T06:24:19.252Z,27.46
2023-04-09T06:25:19.212Z,27.47
2023-04-09T06:26:19.148Z,27.46
2023-04-09T06:27:19.161Z,27.48
2023-04-09T06:28:19.166Z,27.46
2023-04-09T06:29:19.176Z,27.46
2023-04-09T06:30:19.164Z,27.46
2023-04-09T06:31:19.254Z,27.48
2023-04-09T06:32:19.270Z,27.48
2023-04-09T06:33:19.320Z,27.47
2023-04-09T06:34:19.277Z,27.48
2023-04-09T06:35:19.266Z,27.48
2023-04-09T06:36:19.280Z,27.48
2023-04-09T06:37:19.298Z,27.47
2023-04-09T06:38:19.339Z,27.48
2023-04-09T06:39:19.341Z,27.47
2023-04-09T06:40:22.172Z,27.49
2023-04-09T06:41:19.348Z,27.47
2023-04-09T06:42:19.370Z,27.48
2023-04-09T06:43:19.337Z,27.48
2023-04-09T06:44:19.295Z,27.47
2023-04-09T06:45:19.340Z,27.48
2023-04-09T06:46:19.334Z,27.47
2023-04-09T06:47:19.295Z,27.48
2023-04-09T06:48:19.305Z,27.47
2023-04-09T06:49:19.297Z,27.46
2023-04-09T06:50:19.308Z,27.47
2023-04-09T06:51:19.283Z,27.47
2023-04-09T06:52:19.279Z,27.48
2023-04-09T06:53:19.267Z,27.47
2023-04-09T06:54:19.257Z,27.46
2023-04-09T06:55:19.253Z,27.46
2023-04-09T06:56:19.255Z,27.46
2023-04-09T06:57:19.214Z,27.46
2023-04-09T06:58:19.230Z,27.45
2023-04-09T06:59:19.232Z,27.43
2023-04-09T07:00:19.463Z,27.45
2023-04-09T07:01:19.294Z,27.46
2023-04-09T07:02:19.264Z,27.45
2023-04-09T07:03:19.307Z,27.44
2023-04-09T07:04:19.299Z,27.44
2023-04-09T07:05:19.182Z,27.43
2023-04-09T07:06:19.179Z,27.42
2023-04-09T07:07:19.185Z,27.44
2023-04-09T07:08:19.200Z,27.44
2023-04-09T07:09:19.158Z,27.43
2023-04-09T07:10:19.139Z,27.42
2023-04-09T07:11:19.143Z,27.42
2023-04-09T07:12:19.166Z,27.42
2023-04-09T07:13:19.126Z,27.43
2023-04-09T07:14:19.136Z,27.42
2023-04-09T07:15:19.151Z,27.41
2023-04-09T07:16:19.234Z,27.41
2023-04-09T07:17:19.084Z,27.43
2023-04-09T07:18:19.100Z,27.41
2023-04-09T07:19:19.107Z,27.41
2023-04-09T07:20:19.068Z,27.43
2023-04-09T07:21:19.068Z,27.42
2023-04-09T07:22:19.122Z,27.41
2023-04-09T07:23:19.110Z,27.43
2023-04-09T07:24:19.066Z,27.40
2023-04-09T07:25:19.022Z,27.43
2023-04-09T07:26:19.058Z,27.42
2023-04-09T07:27:19.069Z,27.42
2023-04-09T07:28:19.013Z,27.40
2023-04-09T07:29:19.032Z,27.39
2023-04-09T07:30:18.992Z,27.42
2023-04-09T07:31:19.125Z,27.41
2023-04-09T07:32:19.053Z,27.42
2023-04-09T07:33:18.994Z,27.40
2023-04-09T07:34:19.009Z,27.40
2023-04-09T07:35:18.971Z,27.42
2023-04-09T07:36:19.007Z,27.42
2023-04-09T07:37:18.985Z,27.40
2023-04-09T07:38:18.988Z,27.40
2023-04-09T07:39:18.953Z,27.41
2023-04-09T07:40:18.930Z,27.39
2023-04-09T07:41:18.966Z,27.39
2023-04-09T07:42:18.975Z,27.39
2023-04-09T07:43:19.759Z,27.39
2023-04-09T07:44:18.931Z,27.39
2023-04-09T07:45:18.932Z,27.40
2023-04-09T07:46:18.957Z,27.39
2023-04-09T07:47:18.959Z,27.39
2023-04-09T07:48:18.917Z,27.39
2023-04-09T07:49:18.915Z,27.39
2023-04-09T07:50:19.004Z,27.38
2023-04-09T07:51:18.971Z,27.39
2023-04-09T07:52:18.938Z,27.36
2023-04-09T07:53:19.003Z,27.36
2023-04-09T07:54:19.000Z,27.36
2023-04-09T07:55:18.996Z,27.38
2023-04-09T07:56:18.958Z,27.36
2023-04-09T07:57:19.045Z,27.34
2023-04-09T07:58:18.997Z,27.33
2023-04-09T07:59:18.991Z,27.33
2023-04-09T08:00:19.044Z,27.34
2023-04-09T08:01:18.990Z,27.31
2023-04-09T08:02:19.101Z,27.31
2023-04-09T08:03:19.374Z,27.28
2023-04-09T08:04:19.192Z,27.31
2023-04-09T08:05:19.105Z,27.30
2023-04-09T08:06:19.103Z,27.28
2023-04-09T08:07:19.178Z,27.27
2023-04-09T08:08:19.088Z,27.27
2023-04-09T08:09:19.104Z,27.26
2023-04-09T08:10:19.059Z,27.26
2023-04-09T08:11:19.114Z,27.24
2023-04-09T08:12:19.125Z,27.24
2023-04-09T08:13:19.121Z,27.23
2023-04-09T08:14:19.178Z,27.21
2023-04-09T08:15:19.173Z,27.22
2023-04-09T08:16:19.218Z,27.20
2023-04-09T08:17:19.216Z,27.18
2023-04-09T08:18:19.195Z,27.17
2023-04-09T08:19:19.206Z,27.16
2023-04-09T08:20:19.216Z,27.15
2023-04-09T08:21:19.218Z,27.16
2023-04-09T08:22:19.201Z,27.13
2023-04-09T08:23:19.187Z,27.11
2023-04-09T08:24:19.230Z,27.09
2023-04-09T08:25:19.215Z,27.07
2023-04-09T08:26:19.251Z,27.07
2023-04-09T08:27:19.253Z,27.04
2023-04-09T08:28:19.281Z,27.01
2023-04-09T08:29:19.324Z,27.02
2023-04-09T08:30:19.358Z,26.99
2023-04-09T08:31:19.416Z,26.98
2023-04-09T08:32:19.485Z,26.98
2023-04-09T08:33:19.465Z,26.99
2023-04-09T08:34:19.507Z,26.98
2023-04-09T08:35:19.587Z,26.96
2023-04-09T08:36:19.635Z,27.00
2023-04-09T08:37:19.728Z,26.95
2023-04-09T08:38:19.826Z,26.95
2023-04-09T08:39:19.823Z,26.95
2023-04-09T08:40:19.847Z,26.96
2023-04-09T08:41:19.955Z,26.93
2023-04-09T08:42:19.967Z,26.95
2023-04-09T08:43:20.001Z,26.96
2023-04-09T08:44:20.084Z,26.91
2023-04-09T08:45:20.158Z,26.93
2023-04-09T08:46:20.360Z,26.95
2023-04-09T08:47:20.258Z,26.94
2023-04-09T08:48:20.386Z,26.93
2023-04-09T08:49:20.400Z,26.92
2023-04-09T08:50:20.678Z,26.91
2023-04-09T08:51:20.465Z,26.92
2023-04-09T08:52:20.545Z,26.90
2023-04-09T08:53:20.620Z,26.89
2023-04-09T08:54:20.631Z,26.92
2023-04-09T08:55:20.694Z,26.89
2023-04-09T08:56:20.776Z,26.88
2023-04-09T08:57:20.826Z,26.88
2023-04-09T08:58:20.899Z,26.89
2023-04-09T08:59:20.941Z,26.88
2023-04-09T09:00:21.089Z,26.87
2023-04-09T09:01:21.169Z,26.85
2023-04-09T09:02:21.203Z,26.83
2023-04-09T09:03:21.298Z,26.84
2023-04-09T09:04:21.274Z,26.83
2023-04-09T09:05:21.325Z,26.83
2023-04-09T09:06:21.321Z,26.80
2023-04-09T09:07:21.437Z,26.80
2023-04-09T09:08:21.476Z,26.77
2023-04-09T09:09:21.507Z,26.76
2023-04-09T09:10:21.539Z,26.75
2023-04-09T09:11:21.606Z,26.72
2023-04-09T09:12:21.671Z,26.68
2023-04-09T09:13:21.683Z,26.70
2023-04-09T09:14:21.689Z,26.68
2023-04-09T09:15:21.734Z,26.69
2023-04-09T09:16:21.749Z,26.69
2023-04-09T09:17:21.777Z,26.70
2023-04-09T09:18:21.812Z,26.69
2023-04-09T09:19:21.883Z,26.69
2023-04-09T09:20:21.879Z,26.66
2023-04-09T09:21:21.893Z,26.65
2023-04-09T09:22:21.901Z,26.66
2023-04-09T09:23:21.912Z,26.64
2023-04-09T09:24:21.965Z,26.65
2023-04-09T09:25:22.018Z,26.64
2023-04-09T09:26:22.018Z,26.63
2023-04-09T09:27:22.085Z,26.63
2023-04-09T09:28:22.081Z,26.60
2023-04-09T09:29:22.150Z,26.58
2023-04-09T09:30:22.164Z,26.58
2023-04-09T09:31:22.216Z,26.56
2023-04-09T09:32:22.229Z,26.54
2023-04-09T09:33:22.226Z,26.53
2023-04-09T09:34:22.291Z,26.53
2023-04-09T09:35:22.277Z,26.51
2023-04-09T09:36:22.294Z,26.51
2023-04-09T09:37:22.310Z,26.49
2023-04-09T09:38:22.374Z,26.49
2023-04-09T09:39:22.387Z,26.48
2023-04-09T09:40:22.347Z,26.45
2023-04-09T09:41:22.365Z,26.45
2023-04-09T09:42:22.352Z,26.44
2023-04-09T09:43:22.417Z,26.44
2023-04-09T09:44:22.344Z,26.42
2023-04-09T09:45:22.385Z,26.41
2023-04-09T09:46:22.439Z,26.39
2023-04-09T09:47:22.352Z,26.39
2023-04-09T09:48:22.401Z,26.41
2023-04-09T09:49:22.405Z,26.38
2023-04-09T09:50:22.372Z,26.35
2023-04-09T09:51:22.384Z,26.34
2023-04-09T09:52:22.442Z,26.34
2023-04-09T09:53:22.468Z,26.32
2023-04-09T09:54:22.404Z,26.30
2023-04-09T09:55:22.387Z,26.31
2023-04-09T09:56:22.355Z,26.30
2023-04-09T09:57:22.351Z,26.28
2023-04-09T09:58:22.330Z,26.26
2023-04-09T09:59:22.403Z,26.28
2023-04-09T10:00:23.825Z,26.27
2023-04-09T10:01:23.102Z,26.25
2023-04-09T10:02:22.551Z,26.24
2023-04-09T10:03:22.492Z,26.24
2023-04-09T10:04:22.565Z,26.22
2023-04-09T10:05:22.583Z,26.25
2023-04-09T10:06:22.604Z,26.23
2023-04-09T10:07:22.613Z,26.22
2023-04-09T10:08:22.643Z,26.24
2023-04-09T10:09:22.737Z,26.20
2023-04-09T10:10:22.790Z,26.22
2023-04-09T10:11:22.839Z,26.22
2023-04-09T10:12:22.870Z,26.23
2023-04-09T10:13:22.881Z,26.24
2023-04-09T10:14:22.976Z,26.24
2023-04-09T10:15:23.033Z,26.22
2023-04-09T10:16:23.340Z,26.23
2023-04-09T10:17:23.184Z,26.25
2023-04-09T10:18:23.178Z,26.22
2023-04-09T10:19:23.284Z,26.24
2023-04-09T10:20:23.305Z,26.23
2023-04-09T10:21:23.377Z,26.26
2023-04-09T10:22:23.438Z,26.24
2023-04-09T10:23:23.467Z,26.25
2023-04-09T10:24:23.567Z,26.24
2023-04-09T10:25:23.641Z,26.25
2023-04-09T10:26:23.666Z,26.26
2023-04-09T10:27:23.743Z,26.24
2023-04-09T10:28:23.755Z,26.23
2023-04-09T10:29:23.873Z,26.23
2023-04-09T10:30:23.813Z,26.23
2023-04-09T10:31:24.024Z,26.24
2023-04-09T10:32:24.030Z,26.23
2023-04-09T10:33:23.980Z,26.23
2023-04-09T10:34:24.028Z,26.22
2023-04-09T10:35:24.111Z,26.21
2023-04-09T10:36:24.261Z,26.22
2023-04-09T10:37:24.161Z,26.22
2023-04-09T10:38:24.243Z,26.21
2023-04-09T10:39:24.286Z,26.20
2023-04-09T10:40:24.350Z,26.21
2023-04-09T10:41:24.350Z,26.22
2023-04-09T10:42:24.383Z,26.20
2023-04-09T10:43:24.473Z,26.20
2023-04-09T10:44:24.506Z,26.22
2023-04-09T10:45:24.598Z,26.18
2023-04-09T10:46:24.614Z,26.17
2023-04-09T10:47:24.700Z,26.19
2023-04-09T10:48:24.665Z,26.18
2023-04-09T10:49:24.916Z,26.21
2023-04-09T10:50:24.824Z,26.20
2023-04-09T10:51:24.828Z,26.17
2023-04-09T10:52:24.893Z,26.17
2023-04-09T10:53:24.990Z,26.16
2023-04-09T10:54:24.990Z,26.14
2023-04-09T10:55:25.013Z,26.14
2023-04-09T10:56:25.073Z,26.14
2023-04-09T10:57:25.079Z,26.13
2023-04-09T10:58:25.161Z,26.12
2023-04-09T10:59:25.188Z,26.11
2023-04-09T11:00:25.254Z,26.10
2023-04-09T11:01:25.244Z,26.10
2023-04-09T11:02:25.349Z,26.08
2023-04-09T11:03:25.429Z,26.11
2023-04-09T11:04:25.376Z,26.10
2023-04-09T11:05:25.401Z,26.11
2023-04-09T11:06:25.374Z,26.13
2023-04-09T11:07:25.465Z,26.14
2023-04-09T11:08:25.458Z,26.13
2023-04-09T11:09:25.574Z,26.13
2023-04-09T11:10:25.573Z,26.11
2023-04-09T11:11:25.676Z,26.13
2023-04-09T11:12:25.669Z,26.15
2023-04-09T11:13:25.699Z,26.16
2023-04-09T11:14:25.744Z,26.13
2023-04-09T11:15:25.751Z,26.13
2023-04-09T11:16:27.863Z,26.15
2023-04-09T11:17:25.837Z,26.15
2023-04-09T11:18:25.837Z,26.15
2023-04-09T11:19:25.788Z,26.16
2023-04-09T11:20:25.789Z,26.17
2023-04-09T11:21:25.786Z,26.15
2023-04-09T11:22:25.779Z,26.17
2023-04-09T11:23:25.758Z,26.17
2023-04-09T11:24:25.770Z,26.16
2023-04-09T11:25:25.776Z,26.17
2023-04-09T11:26:25.775Z,26.16
2023-04-09T11:27:25.827Z,26.17
2023-04-09T11:28:25.731Z,26.18
2023-04-09T11:29:25.728Z,26.18
2023-04-09T11:30:25.751Z,26.17
2023-04-09T11:31:25.758Z,26.18
2023-04-09T11:32:25.820Z,26.15
2023-04-09T11:33:25.732Z,26.14
2023-04-09T11:34:25.663Z,26.13
2023-04-09T11:35:25.687Z,26.11
2023-04-09T11:36:25.685Z,26.10
2023-04-09T11:37:25.690Z,26.10
2023-04-09T11:38:25.683Z,26.10
2023-04-09T11:39:25.692Z,26.08
2023-04-09T11:40:25.787Z,26.09
2023-04-09T11:41:25.725Z,26.13
2023-04-09T11:42:25.635Z,26.12
2023-04-09T11:43:25.629Z,26.09
2023-04-09T11:44:25.634Z,26.13
2023-04-09T11:45:25.660Z,26.16
2023-04-09T11:46:25.629Z,26.13
2023-04-09T11:47:25.655Z,26.13
2023-04-09T11:48:25.629Z,26.12
2023-04-09T11:49:25.681Z,26.12
2023-04-09T11:50:25.573Z,26.15
2023-04-09T11:51:25.594Z,26.14
2023-04-09T11:52:25.546Z,26.16
2023-04-09T11:53:25.565Z,26.13
2023-04-09T11:54:25.564Z,26.17
2023-04-09T11:55:25.581Z,26.14
2023-04-09T11:56:25.581Z,26.16
2023-04-09T11:57:25.506Z,26.20
2023-04-09T11:58:25.605Z,26.19
2023-04-09T11:59:25.529Z,26.19
2023-04-09T12:00:25.575Z,26.20
2023-04-09T12:01:25.522Z,26.20
2023-04-09T12:02:25.632Z,26.17
2023-04-09T12:03:25.688Z,26.19
2023-04-09T12:04:25.580Z,26.19
2023-04-09T12:05:25.471Z,26.19
2023-04-09T12:06:25.582Z,26.21
2023-04-09T12:07:25.508Z,26.21
2023-04-09T12:08:25.473Z,26.21
2023-04-09T12:09:25.491Z,26.22
2023-04-09T12:10:25.472Z,26.22
2023-04-09T12:11:25.729Z,26.22
2023-04-09T12:12:25.485Z,26.21
2023-04-09T12:13:25.422Z,26.20
2023-04-09T12:14:25.445Z,26.23
2023-04-09T12:15:25.485Z,26.22
2023-04-09T12:16:25.425Z,26.17
2023-04-09T12:17:25.358Z,26.18
2023-04-09T12:18:25.470Z,26.18
2023-04-09T12:19:25.427Z,26.20
2023-04-09T12:20:25.361Z,26.21
2023-04-09T12:21:25.388Z,26.21
2023-04-09T12:22:25.374Z,26.20
2023-04-09T12:23:25.378Z,26.21
2023-04-09T12:24:25.350Z,26.19
2023-04-09T12:25:25.370Z,26.19
2023-04-09T12:26:25.373Z,26.20
2023-04-09T12:27:25.385Z,26.20
2023-04-09T12:28:25.340Z,26.21
2023-04-09T12:29:25.399Z,26.20
2023-04-09T12:30:25.405Z,26.20
2023-04-09T12:31:25.492Z,26.18
2023-04-09T12:32:25.450Z,26.21
2023-04-09T12:33:25.450Z,26.19
2023-04-09T12:34:25.532Z,26.21
2023-04-09T12:35:25.674Z,26.21
2023-04-09T12:36:25.548Z,26.22
2023-04-09T12:37:25.573Z,26.19
2023-04-09T12:38:25.552Z,26.25
2023-04-09T12:39:25.564Z,26.23
2023-04-09T12:40:25.562Z,26.21
2023-04-09T12:41:25.572Z,26.24
2023-04-09T12:42:25.628Z,26.24
2023-04-09T12:43:25.649Z,26.26
2023-04-09T12:44:25.628Z,26.25
2023-04-09T12:45:25.641Z,26.23
2023-04-09T12:46:25.656Z,26.23
2023-04-09T12:47:25.709Z,26.24
2023-04-09T12:48:25.716Z,26.24
2023-04-09T12:49:25.732Z,26.21
2023-04-09T12:50:25.751Z,26.19
2023-04-09T12:51:25.700Z,26.18
2023-04-09T12:52:25.750Z,26.21